Time;durP1;ratioP1;P1;durP2;ratioP2;P2;SDS_P1;SDS_P2;PMS_P1;PMS_P2;Temp;Humidity;BMP_temperature;BMP_pressure;BME280_temperature;BME280_humidity;BME280_pressure;Samples;Min_cycle;Max_cycle;Signal;HPM_P1;HPM_P2
2022/01/27 00:00:41;;;;;;;5.03;3.47;;;;;;;0.99;90.13;97439.25;5057562;28;20229;-70
2022/01/27 00:03:17;;;;;;;4.40;2.57;;;;;;;1.13;89.42;97444.47;5059117;28;20254;-69
2022/01/27 00:05:49;;;;;;;7.93;4.17;;;;;;;1.06;89.91;97448.34;5058753;28;20204;-70
2022/01/27 00:08:20;;;;;;;4.33;3.03;;;;;;;1.06;89.75;97446.59;5059293;28;20216;-70
2022/01/27 00:10:54;;;;;;;3.90;2.07;;;;;;;1.29;88.91;97444.28;5057875;28;20196;-68
2022/01/27 00:13:28;;;;;;;4.33;3.27;;;;;;;1.26;88.87;97431.50;5058160;28;20613;-69
2022/01/27 00:16:10;;;;;;;6.57;2.63;;;;;;;1.04;89.16;97429.44;5058901;28;20235;-70
2022/01/27 00:18:37;;;;;;;5.70;2.70;;;;;;;1.05;89.73;97420.75;5059233;28;20310;-69
2022/01/27 00:21:04;;;;;;;5.83;3.57;;;;;;;1.12;89.15;97419.44;5059496;28;20200;-68
2022/01/27 00:23:31;;;;;;;6.40;4.17;;;;;;;1.10;88.99;97424.72;5058871;28;20196;-69
2022/01/27 00:25:59;;;;;;;16.00;5.47;;;;;;;1.20;88.95;97425.84;5059345;28;20193;-69
2022/01/27 00:28:25;;;;;;;16.67;5.73;;;;;;;1.14;88.92;97422.78;5058969;28;20229;-69
2022/01/27 00:30:51;;;;;;;19.47;3.97;;;;;;;1.17;87.83;97420.00;5059131;28;21207;-71
2022/01/27 00:33:18;;;;;;;6.97;2.73;;;;;;;1.09;88.75;97422.22;5059087;28;20207;-70
2022/01/27 00:35:44;;;;;;;16.13;4.57;;;;;;;1.06;88.35;97427.56;5059229;28;20224;-68
2022/01/27 00:38:11;;;;;;;8.73;2.83;;;;;;;0.95;87.96;97430.81;5058767;28;20744;-70
2022/01/27 00:40:37;;;;;;;10.87;3.57;;;;;;;0.96;88.61;97431.66;5058816;28;20327;-70
2022/01/27 00:43:05;;;;;;;7.47;4.20;;;;;;;1.16;88.59;97434.75;5058880;28;20216;-68
2022/01/27 00:45:33;;;;;;;13.57;3.63;;;;;;;1.17;87.96;97430.38;5059336;28;20201;-67
2022/01/27 00:48:03;;;;;;;6.50;3.70;;;;;;;1.09;87.55;97430.00;5059766;28;20231;-68
2022/01/27 00:50:31;;;;;;;7.13;3.73;;;;;;;1.08;87.89;97433.53;5059543;28;20212;-67
2022/01/27 00:53:00;;;;;;;11.40;3.80;;;;;;;1.03;87.60;97426.03;5059171;28;20254;-68
2022/01/27 00:55:29;;;;;;;5.27;3.60;;;;;;;0.92;87.02;97425.00;5059717;28;20704;-68
2022/01/27 00:58:13;;;;;;;9.53;4.00;;;;;;;0.76;87.47;97422.47;5059687;28;20229;-69
2022/01/27 01:00:50;;;;;;;4.07;2.77;;;;;;;1.00;87.17;97428.78;5055865;28;20209;-68
2022/01/27 01:03:25;;;;;;;6.17;2.97;;;;;;;0.80;87.26;97425.69;5059054;28;20713;-67
2022/01/27 01:06:08;;;;;;;9.40;3.70;;;;;;;0.76;87.28;97417.28;5059011;28;20203;-69
2022/01/27 01:14:39;;;;;;;5.27;2.70;;;;;;;0.54;86.90;97423.78;5058503;28;20255;-69
2022/01/27 01:17:24;;;;;;;6.00;3.87;;;;;;;0.67;86.64;97425.56;5058845;28;20598;-68
2022/01/27 01:20:03;;;;;;;6.07;2.97;;;;;;;0.59;85.74;97424.34;5058615;28;20192;-67
2022/01/27 01:30:51;;;;;;;4.13;3.00;;;;;;;0.14;86.80;97424.38;5058527;28;20211;-68
2022/01/27 01:33:23;;;;;;;11.97;3.50;;;;;;;0.51;85.41;97413.59;5057384;28;20232;-68
2022/01/27 01:36:00;;;;;;;8.53;3.20;;;;;;;0.23;86.49;97410.91;5057835;28;20260;-68
2022/01/27 01:38:26;;;;;;;7.80;3.60;;;;;;;-0.01;87.83;97409.66;5058211;28;20216;-67
2022/01/27 01:40:56;;;;;;;7.50;2.87;;;;;;;0.16;88.23;97406.97;5057735;28;20676;-68
2022/01/27 01:43:23;;;;;;;8.37;2.53;;;;;;;0.20;87.44;97402.44;5057785;28;20200;-68
2022/01/27 01:45:50;;;;;;;5.73;1.33;;;;;;;0.24;86.35;97399.63;5058459;28;20875;-68
2022/01/27 01:48:18;;;;;;;9.70;3.13;;;;;;;0.18;85.39;97412.09;5058337;28;20671;-68
2022/01/27 01:50:46;;;;;;;10.03;3.60;;;;;;;0.30;85.90;97417.38;5058202;28;20203;-68
2022/01/27 01:53:13;;;;;;;4.77;3.13;;;;;;;0.03;85.56;97416.34;5056955;28;20203;-68
2022/01/27 01:55:40;;;;;;;4.30;2.80;;;;;;;0.22;85.07;97414.41;5057986;28;20224;-69
2022/01/27 01:58:07;;;;;;;3.23;2.60;;;;;;;0.26;85.76;97418.50;5058107;28;20220;-68
2022/01/27 02:00:33;;;;;;;4.50;3.60;;;;;;;0.24;85.23;97409.13;5055541;28;20196;-68
2022/01/27 02:03:00;;;;;;;7.10;2.33;;;;;;;0.21;85.61;97419.69;5057248;28;20196;-68
2022/01/27 02:05:30;;;;;;;9.70;3.57;;;;;;;0.20;84.94;97413.63;5058211;28;20200;-68
2022/01/27 02:08:27;;;;;;;14.20;3.63;;;;;;;0.27;85.57;97414.97;5057424;28;21344;-68
2022/01/27 02:19:24;;;;;;;10.93;2.37;;;;;;;-0.01;87.61;97388.94;4976169;28;20261;-69
2022/01/27 02:21:55;;;;;;;2.77;1.90;;;;;;;0.15;87.28;97383.72;5038987;28;20204;-68
2022/01/27 02:24:23;;;;;;;3.60;1.63;;;;;;;0.03;88.52;97369.72;5056374;28;20242;-68
2022/01/27 02:26:51;;;;;;;11.97;5.00;;;;;;;0.16;89.06;97378.44;5057022;28;20193;-67
2022/01/27 02:29:19;;;;;;;1.83;1.73;;;;;;;0.18;87.93;97379.22;5058107;28;20712;-68
2022/01/27 02:31:45;;;;;;;4.37;2.60;;;;;;;0.12;88.05;97391.69;5058073;28;20215;-68
2022/01/27 02:34:12;;;;;;;2.43;2.17;;;;;;;0.12;87.77;97379.56;5055927;28;20224;-68
2022/01/27 02:36:39;;;;;;;7.57;2.07;;;;;;;0.16;87.38;97385.41;5057843;28;20235;-68
2022/01/27 02:39:08;;;;;;;7.17;3.37;;;;;;;0.36;86.96;97388.53;5057224;28;20209;-69
2022/01/27 02:41:41;;;;;;;9.47;3.57;;;;;;;0.31;86.75;97390.56;5057489;28;20213;-69
2022/01/27 02:44:08;;;;;;;7.10;2.73;;;;;;;0.14;85.50;97397.59;5056587;28;20231;-67
2022/01/27 02:46:40;;;;;;;6.97;2.40;;;;;;;0.20;85.18;97408.47;5057537;28;20578;-68
2022/01/27 02:49:07;;;;;;;6.07;3.23;;;;;;;0.04;85.29;97401.66;5056833;28;20255;-68
2022/01/27 02:51:35;;;;;;;7.07;3.77;;;;;;;0.24;85.33;97398.75;5057155;28;20211;-68
2022/01/27 02:54:01;;;;;;;2.60;2.30;;;;;;;0.18;86.86;97383.56;5056468;28;21069;-67
2022/01/27 02:56:29;;;;;;;8.43;4.47;;;;;;;0.19;90.34;97380.91;5057049;28;20232;-68
2022/01/27 02:58:56;;;;;;;2.07;1.97;;;;;;;-0.10;89.88;97385.19;5057065;28;20235;-68
2022/01/27 03:01:22;;;;;;;5.37;3.73;;;;;;;-0.01;91.07;97386.34;5054169;28;20208;-68
2022/01/27 03:03:49;;;;;;;6.33;3.93;;;;;;;0.12;90.93;97376.13;5056230;28;20200;-68
2022/01/27 03:06:16;;;;;;;8.83;3.87;;;;;;;0.26;91.56;97374.44;5057190;28;20196;-68
2022/01/27 03:08:42;;;;;;;7.43;5.23;;;;;;;-0.20;93.34;97386.66;5057695;28;20227;-68
2022/01/27 03:11:16;;;;;;;8.80;5.00;;;;;;;-0.02;94.28;97384.69;5057264;28;20201;-67
2022/01/27 03:13:44;;;;;;;28.00;5.97;;;;;;;-0.17;96.02;97392.47;5056942;28;20208;-68
2022/01/27 03:16:11;;;;;;;11.93;4.03;;;;;;;0.03;95.22;97380.06;5057437;28;20228;-69
2022/01/27 03:18:37;;;;;;;8.67;4.53;;;;;;;0.12;94.40;97376.97;5056766;28;20586;-68
2022/01/27 03:21:05;;;;;;;4.83;4.20;;;;;;;0.28;94.28;97370.00;5054483;28;20197;-69
2022/01/27 03:23:33;;;;;;;12.37;3.73;;;;;;;0.20;94.62;97376.53;5056298;28;20208;-69
2022/01/27 03:26:00;;;;;;;16.33;7.37;;;;;;;0.38;94.18;97375.47;5056464;28;20253;-69
2022/01/27 03:28:28;;;;;;;8.67;4.80;;;;;;;0.15;94.76;97369.03;5055923;28;20208;-69
2022/01/27 03:30:56;;;;;;;16.20;4.50;;;;;;;0.14;95.25;97371.69;5057154;28;20201;-69
2022/01/27 03:33:22;;;;;;;7.57;3.23;;;;;;;-0.21;95.51;97385.78;5056050;28;20204;-69
2022/01/27 03:35:49;;;;;;;5.10;2.60;;;;;;;-0.23;95.32;97381.59;5056325;28;20250;-68
2022/01/27 03:38:15;;;;;;;23.90;6.23;;;;;;;-0.30;96.15;97390.66;5056669;28;20231;-68
2022/01/27 03:40:42;;;;;;;15.57;5.67;;;;;;;-0.23;96.29;97389.38;5056710;28;20205;-69
2022/01/27 03:43:09;;;;;;;6.63;3.87;;;;;;;-0.09;96.03;97379.09;5055689;28;21202;-69
2022/01/27 03:45:36;;;;;;;14.13;6.20;;;;;;;-0.17;95.92;97373.50;5059691;28;20212;-69
2022/01/27 03:48:05;;;;;;;7.50;4.90;;;;;;;-0.09;96.68;97379.91;5059983;28;20639;-69
2022/01/27 03:50:32;;;;;;;9.40;6.30;;;;;;;-0.27;97.40;97378.34;5056660;28;20223;-69
2022/01/27 03:52:59;;;;;;;7.73;4.30;;;;;;;-0.06;97.07;97378.91;5059572;28;20197;-69
2022/01/27 03:55:25;;;;;;;14.53;5.60;;;;;;;-0.28;96.91;97378.44;5059604;28;20931;-69
2022/01/27 03:57:52;;;;;;;9.37;4.47;;;;;;;-0.51;98.36;97366.75;5059707;28;20235;-69
2022/01/27 04:00:19;;;;;;;11.37;3.87;;;;;;;-0.14;98.06;97360.38;5057305;28;20200;-69
2022/01/27 04:02:56;;;;;;;7.87;5.03;;;;;;;-0.29;98.22;97358.66;5059501;28;20208;-69
2022/01/27 04:05:24;;;;;;;12.47;5.83;;;;;;;-0.08;98.35;97366.06;5059375;28;20204;-69
2022/01/27 04:07:56;;;;;;;22.17;7.23;;;;;;;-0.25;98.14;97365.34;5059698;28;20227;-69
2022/01/27 04:10:23;;;;;;;9.53;4.17;;;;;;;-0.31;97.59;97368.25;5059367;28;20204;-69
2022/01/27 04:12:49;;;;;;;8.07;5.30;;;;;;;-0.32;97.31;97370.03;5059174;28;20203;-69
2022/01/27 04:15:16;;;;;;;17.70;6.17;;;;;;;-0.36;97.99;97360.72;5059231;28;20256;-69
2022/01/27 04:17:42;;;;;;;11.93;5.00;;;;;;;-0.21;97.14;97359.88;5059510;28;20743;-69
2022/01/27 04:20:10;;;;;;;10.50;4.73;;;;;;;0.05;96.59;97347.16;5059100;28;20203;-69
2022/01/27 04:22:37;;;;;;;2.63;2.43;;;;;;;-0.22;96.80;97358.22;5058523;28;20205;-69
2022/01/27 04:25:05;;;;;;;7.67;4.47;;;;;;;-0.27;96.92;97349.88;5059662;28;20200;-68
2022/01/27 04:27:34;;;;;;;8.80;5.63;;;;;;;-0.39;96.68;97354.91;5059506;28;20254;-68
2022/01/27 04:30:03;;;;;;;5.33;3.73;;;;;;;-0.67;98.36;97353.91;5059461;28;20232;-68
2022/01/27 04:32:35;;;;;;;17.50;5.70;;;;;;;-0.55;97.57;97343.69;5058908;28;20196;-68
2022/01/27 04:35:04;;;;;;;10.93;5.90;;;;;;;-0.45;98.03;97334.53;5059670;28;20204;-68
2022/01/27 04:37:36;;;;;;;8.47;3.97;;;;;;;-0.41;98.38;97346.38;5058827;28;20235;-68
2022/01/27 04:40:10;;;;;;;11.60;3.50;;;;;;;-0.22;97.66;97316.78;5059738;28;20212;-69
2022/01/27 04:42:47;;;;;;;11.63;5.70;;;;;;;-0.74;98.46;97311.97;5058419;28;20678;-69
2022/01/27 04:45:16;;;;;;;8.67;5.07;;;;;;;-0.56;98.57;97296.28;5059265;28;20282;-69
2022/01/27 04:47:47;;;;;;;12.53;5.13;;;;;;;-0.57;98.49;97298.97;5058537;28;20680;-69
2022/01/27 04:50:13;;;;;;;4.40;3.93;;;;;;;-0.55;98.69;97302.28;5060079;28;20291;-68
2022/01/27 04:52:44;;;;;;;3.90;3.03;;;;;;;-0.59;97.89;97305.97;5058466;28;20214;-68
2022/01/27 04:55:14;;;;;;;8.10;5.57;;;;;;;-0.58;98.53;97305.88;5058829;28;20685;-68
2022/01/27 04:57:43;;;;;;;8.07;4.40;;;;;;;-0.72;98.61;97310.16;5058480;28;20705;-68
2022/01/27 05:00:13;;;;;;;3.30;3.03;;;;;;;-0.63;99.02;97312.22;5056676;28;20200;-69
2022/01/27 05:02:45;;;;;;;10.50;4.00;;;;;;;-0.72;99.58;97315.31;5057568;28;20208;-69
2022/01/27 05:05:11;;;;;;;9.20;3.80;;;;;;;-0.70;99.18;97310.91;5059282;28;20204;-68
2022/01/27 05:07:39;;;;;;;7.60;5.70;;;;;;;-0.73;98.96;97315.41;5058205;28;20217;-68
2022/01/27 05:10:11;;;;;;;15.17;7.30;;;;;;;-0.64;99.02;97313.16;5058660;28;20206;-68
2022/01/27 05:12:43;;;;;;;13.87;5.00;;;;;;;-0.48;98.63;97319.16;5057831;28;20212;-68
2022/01/27 05:15:11;;;;;;;4.03;2.77;;;;;;;-0.71;98.28;97319.59;5058805;28;20658;-69
2022/01/27 05:17:37;;;;;;;7.63;4.10;;;;;;;-0.57;97.64;97314.50;5057800;28;20224;-68
2022/01/27 05:20:05;;;;;;;9.17;4.33;;;;;;;-0.49;97.50;97307.13;5058540;28;20203;-69
2022/01/27 05:22:32;;;;;;;9.17;3.83;;;;;;;-0.46;97.16;97306.97;5057958;28;20213;-68
2022/01/27 05:24:59;;;;;;;18.03;7.23;;;;;;;-0.47;96.33;97305.28;5058026;28;20319;-68
2022/01/27 05:27:25;;;;;;;10.10;5.93;;;;;;;-0.56;96.56;97310.97;5058010;28;20286;-68
2022/01/27 05:29:53;;;;;;;10.93;6.37;;;;;;;-0.40;95.93;97306.63;5058352;28;20228;-68
2022/01/27 05:32:20;;;;;;;7.23;5.07;;;;;;;-0.41;95.44;97302.38;5057277;28;20205;-68
2022/01/27 05:34:47;;;;;;;9.33;5.97;;;;;;;-0.39;95.73;97301.34;5057690;28;20200;-69
2022/01/27 05:37:13;;;;;;;5.70;5.03;;;;;;;-0.40;95.23;97304.03;5057982;28;20224;-69
2022/01/27 05:39:40;;;;;;;13.97;6.13;;;;;;;-0.30;95.06;97292.25;5057610;28;20219;-69
2022/01/27 05:42:07;;;;;;;12.17;5.63;;;;;;;-0.17;93.87;97294.03;5057643;28;20207;-69
2022/01/27 05:44:34;;;;;;;7.13;5.37;;;;;;;-0.52;94.32;97299.56;5058039;28;20208;-68
2022/01/27 05:47:02;;;;;;;14.00;5.30;;;;;;;-0.32;94.05;97307.03;5058109;28;20223;-69
2022/01/27 05:49:28;;;;;;;6.53;4.60;;;;;;;-0.44;94.00;97312.91;5057139;28;20207;-69
2022/01/27 05:51:55;;;;;;;15.57;5.57;;;;;;;-0.32;92.86;97296.66;5058350;28;21156;-69
2022/01/27 05:54:22;;;;;;;18.13;7.73;;;;;;;-0.15;92.11;97301.72;5057037;28;20249;-69
2022/01/27 05:56:48;;;;;;;8.60;3.83;;;;;;;-0.08;92.43;97298.69;5058514;28;20224;-69
2022/01/27 05:59:15;;;;;;;10.30;4.37;;;;;;;-0.14;92.28;97300.81;5057069;28;20204;-69
2022/01/27 06:01:41;;;;;;;6.63;4.13;;;;;;;-0.09;91.38;97299.63;5054730;28;20203;-69
2022/01/27 06:04:09;;;;;;;15.47;5.63;;;;;;;-0.04;91.65;97304.56;5056522;28;20208;-68
2022/01/27 06:06:36;;;;;;;13.03;6.63;;;;;;;-0.11;91.33;97304.06;5057136;28;21049;-69
2022/01/27 06:09:03;;;;;;;8.23;4.23;;;;;;;-0.29;91.23;97299.94;5057004;28;20230;-69
2022/01/27 06:11:29;;;;;;;11.27;5.07;;;;;;;-0.33;91.84;97292.41;5057378;28;20872;-69
2022/01/27 06:13:56;;;;;;;8.67;5.03;;;;;;;-0.34;91.55;97290.75;5056662;28;20719;-69
2022/01/27 06:16:22;;;;;;;8.60;4.13;;;;;;;-0.37;91.40;97288.31;5057144;28;20758;-69
2022/01/27 06:18:49;;;;;;;8.43;5.47;;;;;;;-0.27;91.17;97282.53;5057301;28;20285;-69
2022/01/27 06:21:17;;;;;;;8.33;6.40;;;;;;;-0.10;91.41;97276.41;5055981;28;20219;-69
2022/01/27 06:23:44;;;;;;;8.30;4.37;;;;;;;-0.35;91.27;97278.72;5056222;28;20222;-69
2022/01/27 06:26:10;;;;;;;18.87;8.13;;;;;;;-0.18;91.52;97276.00;5056892;28;20192;-69
2022/01/27 06:28:37;;;;;;;12.47;7.47;;;;;;;-0.32;92.02;97278.53;5057223;28;20230;-68
2022/01/27 06:31:03;;;;;;;26.57;10.00;;;;;;;-0.55;92.18;97276.41;5056519;28;20638;-68
2022/01/27 06:33:30;;;;;;;5.20;3.57;;;;;;;-0.66;92.52;97272.75;5056817;28;20204;-68
2022/01/27 06:35:56;;;;;;;16.60;4.80;;;;;;;-0.46;92.07;97281.91;5057304;28;20196;-68
2022/01/27 06:38:24;;;;;;;9.43;4.33;;;;;;;-0.28;91.51;97285.22;5056736;28;20224;-68
2022/01/27 06:40:51;;;;;;;16.20;7.67;;;;;;;-0.54;91.48;97288.44;5056541;28;20208;-68
2022/01/27 06:43:17;;;;;;;11.23;5.17;;;;;;;-0.57;91.34;97286.03;5056205;28;20205;-69
2022/01/27 06:45:43;;;;;;;9.70;4.13;;;;;;;-0.62;91.59;97280.28;5056950;28;20201;-69
2022/01/27 06:48:10;;;;;;;8.73;5.33;;;;;;;-0.69;92.60;97284.09;5056820;28;20220;-69
2022/01/27 06:50:38;;;;;;;6.20;4.00;;;;;;;-0.82;92.80;97285.69;5056750;28;20211;-68
2022/01/27 06:53:04;;;;;;;4.23;2.97;;;;;;;-0.55;92.20;97286.75;5056205;28;20303;-69
2022/01/27 06:55:33;;;;;;;4.97;3.80;;;;;;;-0.50;91.71;97279.56;5056572;28;20203;-69
2022/01/27 06:57:59;;;;;;;16.50;6.50;;;;;;;-0.50;91.20;97279.56;5056868;28;20224;-69
2022/01/27 07:00:26;;;;;;;19.00;5.23;;;;;;;-0.34;90.17;97277.81;5054665;28;20935;-69
2022/01/27 07:02:53;;;;;;;11.90;4.83;;;;;;;-0.51;91.16;97280.50;5055639;28;20203;-69
2022/01/27 07:05:19;;;;;;;15.53;7.00;;;;;;;-0.41;91.29;97277.31;5056705;28;20207;-70
2022/01/27 07:07:46;;;;;;;5.60;3.20;;;;;;;-0.31;91.18;97277.63;5057140;28;20715;-69
2022/01/27 07:10:12;;;;;;;7.43;4.13;;;;;;;-0.56;90.65;97290.25;5056644;28;20203;-68
2022/01/27 07:12:42;;;;;;;4.33;3.90;;;;;;;-0.46;91.87;97291.44;5055816;28;20211;-70
2022/01/27 07:15:09;;;;;;;13.10;4.77;;;;;;;-0.46;91.01;97291.44;5057096;28;20578;-69
2022/01/27 07:17:36;;;;;;;9.07;5.93;;;;;;;-0.42;90.85;97293.78;5056406;28;20233;-69
2022/01/27 07:20:03;;;;;;;7.77;4.93;;;;;;;-0.44;91.17;97305.94;5060300;28;20192;-69
2022/01/27 07:22:32;;;;;;;9.30;3.87;;;;;;;-0.11;91.00;97292.88;5059937;28;20200;-71
2022/01/27 07:24:58;;;;;;;14.53;5.47;;;;;;;-0.20;89.89;97293.41;5060761;28;20211;-69
2022/01/27 07:27:25;;;;;;;10.20;6.37;;;;;;;-0.19;90.09;97288.13;5060362;28;20775;-72
2022/01/27 07:29:52;;;;;;;14.70;7.07;;;;;;;-0.12;90.27;97291.22;5060664;28;20200;-71
2022/01/27 07:32:19;;;;;;;11.33;5.80;;;;;;;-0.08;90.71;97282.34;5059352;28;20699;-69
2022/01/27 07:34:45;;;;;;;7.93;5.40;;;;;;;-0.11;89.75;97275.56;5060630;28;20222;-69
2022/01/27 07:37:12;;;;;;;6.70;4.57;;;;;;;-0.08;90.27;97277.97;5059607;28;20866;-68
2022/01/27 07:39:38;;;;;;;8.50;4.33;;;;;;;-0.06;89.94;97272.69;5060634;28;20220;-68
2022/01/27 07:42:05;;;;;;;5.87;4.60;;;;;;;-0.13;90.50;97268.81;5060130;28;20211;-71
2022/01/27 07:44:32;;;;;;;15.17;6.80;;;;;;;0.14;89.68;97268.88;5059526;28;20215;-71
2022/01/27 07:47:00;;;;;;;3.97;2.10;;;;;;;-0.14;90.90;97267.13;5060339;28;20207;-69
2022/01/27 07:49:26;;;;;;;8.93;3.67;;;;;;;-0.18;91.70;97278.59;5059792;28;20204;-70
2022/01/27 07:51:53;;;;;;;7.37;3.17;;;;;;;-0.17;92.06;97267.31;5060253;28;20200;-69
2022/01/27 07:54:19;;;;;;;5.40;4.50;;;;;;;0.03;91.68;97268.66;5059474;28;20219;-69
2022/01/27 07:56:46;;;;;;;16.83;5.87;;;;;;;-0.03;92.51;97270.78;5060429;28;20204;-70
2022/01/27 07:59:12;;;;;;;12.23;5.53;;;;;;;0.04;91.78;97267.75;5059719;28;20247;-69
2022/01/27 08:01:39;;;;;;;8.13;4.13;;;;;;;-0.04;92.50;97263.09;5057139;28;20208;-69
2022/01/27 08:04:07;;;;;;;11.80;6.73;;;;;;;0.23;92.19;97268.34;5058922;28;20205;-70
2022/01/27 08:06:33;;;;;;;19.90;5.97;;;;;;;0.23;91.87;97268.34;5060066;28;20231;-70
2022/01/27 08:09:00;;;;;;;11.43;5.07;;;;;;;0.28;91.79;97266.31;5059624;28;20220;-69
2022/01/27 08:11:26;;;;;;;14.13;6.10;;;;;;;0.21;90.94;97272.78;5059723;28;20684;-69
2022/01/27 08:13:53;;;;;;;5.13;2.07;;;;;;;0.17;91.63;97279.06;5058736;28;20207;-70
2022/01/27 08:16:19;;;;;;;8.47;4.10;;;;;;;0.25;91.90;97282.03;5060136;28;20680;-68
2022/01/27 08:18:46;;;;;;;7.57;4.43;;;;;;;0.20;92.30;97289.25;5059081;28;20228;-69
2022/01/27 08:21:15;;;;;;;4.63;4.07;;;;;;;0.21;92.17;97292.69;5059869;28;20199;-70
2022/01/27 08:23:43;;;;;;;6.37;2.73;;;;;;;0.05;92.36;97284.97;5058790;28;20211;-70
2022/01/27 08:26:13;;;;;;;4.97;4.23;;;;;;;0.07;93.19;97288.28;5059663;28;20200;-69
2022/01/27 08:28:45;;;;;;;8.90;3.17;;;;;;;0.32;91.85;97293.72;5058314;28;21120;-69
2022/01/27 08:31:13;;;;;;;13.83;5.90;;;;;;;0.39;91.33;97287.25;5058675;28;20650;-68
2022/01/27 08:33:40;;;;;;;9.23;4.30;;;;;;;0.24;91.81;97284.72;5059177;28;20252;-68
2022/01/27 08:36:07;;;;;;;3.37;2.27;;;;;;;0.21;91.33;97296.09;5060930;28;20691;-69
2022/01/27 08:38:36;;;;;;;5.63;3.23;;;;;;;0.35;91.69;97287.53;5061139;28;20232;-70
2022/01/27 08:41:04;;;;;;;4.53;2.90;;;;;;;0.40;90.99;97281.16;5059674;28;20699;-70
2022/01/27 08:43:31;;;;;;;6.03;4.47;;;;;;;0.46;90.24;97285.97;5059292;28;20207;-69
2022/01/27 08:45:58;;;;;;;8.97;5.50;;;;;;;0.23;90.23;97293.41;5059856;28;20211;-71
2022/01/27 08:48:27;;;;;;;4.97;3.63;;;;;;;0.39;90.67;97286.41;5059412;28;20591;-69
2022/01/27 08:50:59;;;;;;;9.40;4.63;;;;;;;0.26;91.42;97294.06;5058555;28;21184;-69
2022/01/27 08:53:26;;;;;;;3.67;2.20;;;;;;;0.28;90.81;97297.44;5058033;28;20205;-70
2022/01/27 08:55:54;;;;;;;6.33;3.63;;;;;;;0.50;90.57;97294.38;5059443;28;20204;-71
2022/01/27 08:58:23;;;;;;;6.23;3.57;;;;;;;0.44;90.44;97287.81;5058486;28;20233;-71
2022/01/27 09:00:50;;;;;;;7.17;3.77;;;;;;;0.20;90.17;97284.06;5056349;28;20197;-68
2022/01/27 09:03:17;;;;;;;5.93;3.37;;;;;;;0.48;90.03;97291.88;5058242;28;20208;-70
2022/01/27 09:05:44;;;;;;;7.83;4.63;;;;;;;0.40;89.86;97283.75;5057841;28;20698;-71
2022/01/27 09:08:10;;;;;;;15.83;5.30;;;;;;;0.54;88.80;97277.75;5058658;28;20262;-71
2022/01/27 09:10:37;;;;;;;6.30;4.03;;;;;;;0.66;88.05;97270.88;5058661;28;20216;-69
2022/01/27 09:13:05;;;;;;;10.57;3.13;;;;;;;0.96;87.93;97270.78;5058393;28;20197;-70
2022/01/27 09:15:32;;;;;;;11.03;6.87;;;;;;;0.94;87.98;97268.28;5058655;28;20204;-70
2022/01/27 09:17:59;;;;;;;11.13;3.17;;;;;;;0.63;88.12;97273.66;5058606;28;20311;-69
2022/01/27 09:20:26;;;;;;;12.73;5.70;;;;;;;0.86;87.69;97269.69;5058490;28;20208;-69
2022/01/27 09:22:56;;;;;;;6.37;3.53;;;;;;;0.75;87.20;97269.47;5057935;28;20204;-69
2022/01/27 09:25:29;;;;;;;10.87;4.77;;;;;;;0.85;88.04;97268.84;5057937;28;20204;-68
2022/01/27 09:27:56;;;;;;;7.83;3.23;;;;;;;0.95;87.36;97269.09;5058466;28;20227;-69
2022/01/27 09:30:24;;;;;;;10.93;5.10;;;;;;;1.03;87.02;97264.28;5058424;28;20230;-69
2022/01/27 09:32:50;;;;;;;3.47;1.47;;;;;;;1.02;86.66;97260.00;5057683;28;20960;-69
2022/01/27 09:35:19;;;;;;;9.93;5.23;;;;;;;1.27;86.46;97256.63;5057681;28;20291;-69
2022/01/27 09:37:45;;;;;;;9.77;5.30;;;;;;;1.10;85.94;97269.00;5058291;28;20228;-69
2022/01/27 09:40:12;;;;;;;8.07;3.50;;;;;;;1.08;85.55;97275.22;5057538;28;20220;-69
2022/01/27 09:42:39;;;;;;;5.47;3.17;;;;;;;1.08;85.80;97275.22;5056847;28;20204;-69
2022/01/27 09:45:08;;;;;;;8.00;4.30;;;;;;;1.34;85.54;97289.06;5058626;28;20207;-69
2022/01/27 09:47:40;;;;;;;23.87;4.20;;;;;;;1.44;85.70;97284.97;5057766;28;20311;-69
2022/01/27 09:50:22;;;;;;;9.43;4.63;;;;;;;1.63;84.26;97292.41;5057765;28;20208;-69
2022/01/27 09:52:49;;;;;;;2.87;2.20;;;;;;;1.34;84.72;97293.44;5057118;28;20207;-69
2022/01/27 09:55:15;;;;;;;6.93;3.80;;;;;;;1.39;83.93;97281.00;5057756;28;20200;-69
2022/01/27 09:57:42;;;;;;;9.07;4.13;;;;;;;1.40;83.26;97283.50;5057133;28;20224;-69
2022/01/27 10:00:09;;;;;;;19.53;6.40;;;;;;;1.70;82.61;97283.31;5057260;28;20194;-69
2022/01/27 10:02:39;;;;;;;8.30;4.90;;;;;;;2.00;82.62;97280.38;5057577;28;20201;-69
2022/01/27 10:05:08;;;;;;;6.30;3.93;;;;;;;1.76;82.71;97286.34;5057166;28;20257;-69
2022/01/27 10:07:40;;;;;;;8.37;3.00;;;;;;;1.58;82.58;97287.53;5057007;28;20344;-69
2022/01/27 10:10:10;;;;;;;4.57;2.77;;;;;;;1.56;82.59;97289.38;5058153;28;20204;-69
2022/01/27 10:12:40;;;;;;;9.77;7.60;;;;;;;1.68;82.23;97292.94;5056725;28;20215;-69
2022/01/27 10:15:11;;;;;;;7.87;2.53;;;;;;;1.71;82.20;97288.41;5056814;28;20205;-69
2022/01/27 10:17:40;;;;;;;5.67;4.57;;;;;;;1.91;81.76;97295.75;5057502;28;20232;-69
2022/01/27 10:20:17;;;;;;;12.40;4.23;;;;;;;2.22;81.03;97296.25;5057015;28;20301;-69
2022/01/27 10:23:11;;;;;;;12.37;5.90;;;;;;;2.29;79.26;97281.91;5056558;28;20199;-69
2022/01/27 10:25:46;;;;;;;11.60;5.60;;;;;;;2.34;80.59;97272.00;5057478;28;20208;-69
2022/01/27 10:28:29;;;;;;;5.83;3.73;;;;;;;2.39;80.36;97282.13;5057473;28;20248;-69
2022/01/27 10:31:03;;;;;;;4.30;3.30;;;;;;;2.89;79.44;97273.38;5057274;28;20204;-69
2022/01/27 10:33:43;;;;;;;6.10;3.57;;;;;;;2.59;80.03;97265.06;5056198;28;20198;-69
2022/01/27 10:36:24;;;;;;;8.47;5.33;;;;;;;2.66;78.89;97268.06;5057701;28;20202;-69
2022/01/27 10:38:53;;;;;;;10.57;4.07;;;;;;;2.57;80.00;97277.34;5056127;28;20228;-69
2022/01/27 10:41:21;;;;;;;2.60;2.30;;;;;;;2.50;79.44;97283.88;5057427;28;20208;-69
2022/01/27 10:43:48;;;;;;;8.27;4.20;;;;;;;2.47;80.18;97265.06;5055699;28;20207;-69
2022/01/27 10:46:21;;;;;;;11.30;4.27;;;;;;;2.71;79.74;97258.19;5055985;28;20204;-69
2022/01/27 10:48:55;;;;;;;3.47;2.87;;;;;;;2.89;79.33;97262.97;5055420;28;20360;-69
2022/01/27 10:51:25;;;;;;;5.10;2.57;;;;;;;2.77;79.74;97265.59;5056992;28;20205;-69
2022/01/27 10:53:59;;;;;;;10.70;4.53;;;;;;;3.12;78.15;97264.81;5055260;28;20680;-69
2022/01/27 10:56:27;;;;;;;6.97;3.10;;;;;;;3.16;79.15;97258.44;5056683;28;20199;-69
2022/01/27 10:58:56;;;;;;;11.57;5.00;;;;;;;3.18;78.14;97257.41;5056379;28;20220;-69
2022/01/27 11:01:28;;;;;;;8.53;2.37;;;;;;;3.15;78.61;97254.16;5056614;28;20197;-69
2022/01/27 11:03:58;;;;;;;14.73;4.63;;;;;;;3.22;79.46;97255.38;5055957;28;20597;-69
2022/01/27 11:06:27;;;;;;;6.90;4.03;;;;;;;3.29;78.62;97261.84;5056433;28;20665;-69
2022/01/27 11:08:57;;;;;;;4.10;3.30;;;;;;;3.36;78.86;97244.84;5057109;28;20522;-69
2022/01/27 11:11:26;;;;;;;9.40;5.17;;;;;;;3.31;77.97;97245.19;5056718;28;20211;-69
2022/01/27 11:13:54;;;;;;;8.73;3.37;;;;;;;3.45;77.19;97241.56;5056388;28;20593;-69
2022/01/27 11:16:27;;;;;;;12.47;3.37;;;;;;;3.36;77.30;97239.63;5056103;28;20208;-69
2022/01/27 11:19:00;;;;;;;6.60;3.97;;;;;;;3.31;76.40;97236.50;5057048;28;20259;-69
2022/01/27 11:21:34;;;;;;;5.77;2.97;;;;;;;3.52;76.33;97238.41;5056070;28;20676;-69
2022/01/27 11:24:06;;;;;;;4.97;3.50;;;;;;;3.67;76.02;97225.09;5056775;28;20206;-69
2022/01/27 11:26:37;;;;;;;9.50;3.13;;;;;;;3.34;75.23;97233.69;5057063;28;20302;-69
2022/01/27 11:29:05;;;;;;;8.37;4.03;;;;;;;3.29;74.96;97235.81;5056280;28;20216;-69
2022/01/27 11:31:46;;;;;;;4.73;3.43;;;;;;;3.44;76.08;97235.53;5055772;28;20220;-69
2022/01/27 11:34:13;;;;;;;4.90;3.03;;;;;;;3.23;78.97;97242.28;5054311;28;20200;-69
2022/01/27 11:37:00;;;;;;;4.47;2.20;;;;;;;3.25;78.88;97240.38;5056057;28;20200;-69
2022/01/27 11:39:48;;;;;;;6.63;3.17;;;;;;;3.28;78.34;97240.16;5054778;28;20220;-69
2022/01/27 11:42:15;;;;;;;7.30;3.57;;;;;;;2.79;79.29;97253.28;5054737;28;20204;-69
2022/01/27 11:44:45;;;;;;;4.13;2.83;;;;;;;2.73;79.12;97264.13;5055254;28;20216;-69
2022/01/27 11:47:20;;;;;;;10.50;4.00;;;;;;;2.99;80.01;97258.78;5056862;28;20692;-69
2022/01/27 11:49:53;;;;;;;10.97;3.67;;;;;;;2.87;79.52;97262.22;5055788;28;20536;-69
2022/01/27 11:52:23;;;;;;;6.90;2.57;;;;;;;2.96;79.34;97264.19;5055864;28;20228;-69
2022/01/27 11:54:50;;;;;;;10.27;3.33;;;;;;;2.90;77.69;97259.41;5055947;28;20201;-69
2022/01/27 11:57:40;;;;;;;3.20;1.53;;;;;;;3.27;76.29;97245.47;5056404;28;20228;-69
2022/01/27 12:00:16;;;;;;;13.77;4.70;;;;;;;3.38;75.60;97246.38;5054645;28;20220;-69
2022/01/27 12:03:08;;;;;;;14.37;3.93;;;;;;;3.74;73.84;97239.38;5055339;28;20211;-69
2022/01/27 12:05:36;;;;;;;5.27;3.20;;;;;;;3.41;75.21;97240.97;5056339;28;20215;-69
2022/01/27 12:08:26;;;;;;;6.53;2.33;;;;;;;3.78;76.72;97222.56;5059608;28;20230;-69